Time;durP1;ratioP1;P1;durP2;ratioP2;P2;SDS_P1;SDS_P2;PMS_P1;PMS_P2;Temp;Humidity;BMP_temperature;BMP_pressure;BME280_temperature;BME280_humidity;BME280_pressure;Samples;Min_cycle;Max_cycle;Signal;HPM_P1;HPM_P2
2021/08/17 00:00:44;;;;;;;11.75;3.70;;;;;;;15.77;53.32;101686.13;4887955;28;124381;-62
2021/08/17 00:03:11;;;;;;;7.72;3.22;;;;;;;15.76;53.62;101684.44;4890868;28;115144;-63
2021/08/17 00:05:41;;;;;;;9.68;3.65;;;;;;;15.75;53.58;101677.34;4885788;28;115333;-63
2021/08/17 00:08:09;;;;;;;7.95;3.53;;;;;;;15.73;53.69;101681.91;4886222;28;125665;-63
2021/08/17 00:10:36;;;;;;;8.98;3.22;;;;;;;15.71;53.67;101683.78;4894223;28;124904;-64
2021/08/17 00:13:04;;;;;;;6.05;2.63;;;;;;;15.69;53.87;101677.66;4861676;28;114923;-64
2021/08/17 00:15:34;;;;;;;10.75;3.65;;;;;;;15.66;53.80;101677.81;4889465;28;114985;-65
2021/08/17 00:18:03;;;;;;;10.52;3.60;;;;;;;15.64;53.99;101682.38;4883587;28;124687;-65
2021/08/17 00:20:30;;;;;;;8.63;3.00;;;;;;;15.63;54.07;101677.94;4890131;28;124963;-65
2021/08/17 00:22:58;;;;;;;7.68;3.40;;;;;;;15.61;54.18;101677.19;4882524;28;114245;-65
2021/08/17 00:25:25;;;;;;;9.25;3.40;;;;;;;15.59;54.09;101676.41;4890111;28;113964;-65
2021/08/17 00:27:53;;;;;;;8.68;3.35;;;;;;;15.58;54.20;101672.00;4888391;28;124949;-65
2021/08/17 00:30:21;;;;;;;7.78;3.05;;;;;;;15.56;54.40;101665.91;4890436;28;124510;-64
2021/08/17 00:32:49;;;;;;;8.27;3.55;;;;;;;15.56;54.50;101671.25;4889010;28;114459;-65
2021/08/17 00:35:17;;;;;;;6.55;3.17;;;;;;;15.55;54.47;101666.81;4886860;28;114218;-65
2021/08/17 00:37:45;;;;;;;8.27;3.08;;;;;;;15.54;54.75;101673.13;4882682;28;124111;-65
2021/08/17 00:40:12;;;;;;;9.52;3.35;;;;;;;15.55;54.73;101670.34;4887441;28;123836;-65
2021/08/17 00:42:41;;;;;;;10.20;3.53;;;;;;;15.57;54.81;101667.59;4886124;28;114206;-65
2021/08/17 00:45:11;;;;;;;8.50;3.40;;;;;;;15.56;54.75;101665.91;4887560;28;114217;-65
2021/08/17 00:47:40;;;;;;;9.77;3.75;;;;;;;15.55;54.81;101661.47;4890582;28;124418;-65
2021/08/17 00:50:07;;;;;;;9.63;3.78;;;;;;;15.55;54.76;101665.00;4886224;28;124077;-65
2021/08/17 00:52:35;;;;;;;7.88;3.25;;;;;;;15.54;54.89;101657.09;4888397;28;115837;-65
2021/08/17 00:55:02;;;;;;;9.30;3.80;;;;;;;15.54;54.94;101654.44;4891805;28;115157;-65
2021/08/17 00:57:30;;;;;;;8.77;3.70;;;;;;;15.53;55.09;101660.72;4890321;28;123763;-65
2021/08/17 00:59:57;;;;;;;9.55;3.60;;;;;;;15.54;55.07;101657.09;4887356;28;123723;-65
2021/08/17 01:02:24;;;;;;;8.75;3.85;;;;;;;15.53;55.19;101655.38;4887331;28;114631;-65
2021/08/17 01:04:52;;;;;;;7.90;3.60;;;;;;;15.53;55.26;101650.03;4890649;28;113344;-65
2021/08/17 01:07:19;;;;;;;10.00;3.60;;;;;;;15.53;55.40;101660.72;4868924;28;125027;-65
2021/08/17 01:09:46;;;;;;;8.40;3.75;;;;;;;15.52;55.33;101657.19;4890911;28;123952;-65
2021/08/17 01:12:13;;;;;;;10.65;4.07;;;;;;;15.52;55.54;101664.31;4886061;28;114870;-65
2021/08/17 01:14:41;;;;;;;10.35;4.38;;;;;;;15.51;55.47;101662.59;4885532;28;113868;-65
2021/08/17 01:17:08;;;;;;;11.10;4.63;;;;;;;15.51;55.66;101651.91;4885722;28;123921;-65
2021/08/17 01:19:37;;;;;;;11.77;4.53;;;;;;;15.51;55.68;101662.59;4883534;28;124655;-65
2021/08/17 01:22:04;;;;;;;12.75;5.10;;;;;;;15.51;55.72;101651.91;4883917;28;116977;-65
2021/08/17 01:24:31;;;;;;;13.32;5.30;;;;;;;15.51;55.72;101651.91;4884434;28;113745;-65
2021/08/17 01:26:58;;;;;;;12.05;4.88;;;;;;;15.51;55.83;101663.44;4884171;28;123943;-65
2021/08/17 01:29:25;;;;;;;12.80;5.20;;;;;;;15.51;55.98;101665.25;4884927;28;124324;-65
2021/08/17 01:31:53;;;;;;;13.63;5.40;;;;;;;15.49;56.02;101660.00;4890954;28;114505;-65
2021/08/17 01:34:20;;;;;;;13.68;5.50;;;;;;;15.50;56.13;101669.75;4887665;28;114053;-65
2021/08/17 01:36:47;;;;;;;12.93;5.25;;;;;;;15.49;56.07;101669.81;4882697;28;124157;-65
2021/08/17 01:39:15;;;;;;;16.15;6.22;;;;;;;15.49;56.28;101669.81;4885607;28;124784;-65
2021/08/17 01:41:43;;;;;;;19.17;6.25;;;;;;;15.49;56.34;101680.50;4886993;28;115074;-65
2021/08/17 01:44:13;;;;;;;19.42;6.70;;;;;;;15.50;56.48;101671.53;4887758;28;115025;-65
2021/08/17 01:46:41;;;;;;;17.20;6.20;;;;;;;15.48;56.42;101673.44;4890299;28;124372;-65
2021/08/17 01:49:09;;;;;;;13.43;5.55;;;;;;;15.48;56.49;101682.31;4863776;28;123611;-65
2021/08/17 01:51:37;;;;;;;16.58;6.60;;;;;;;15.48;56.54;101682.31;4891092;28;114705;-65
2021/08/17 01:54:05;;;;;;;18.38;6.70;;;;;;;15.49;56.56;101672.50;4881640;28;114106;-65
2021/08/17 01:56:33;;;;;;;16.35;6.68;;;;;;;15.49;56.68;101675.16;4886355;28;124784;-65
2021/08/17 01:59:02;;;;;;;17.77;6.78;;;;;;;15.49;56.66;101669.81;4859657;28;123107;-65
2021/08/17 02:01:29;;;;;;;22.10;7.13;;;;;;;15.48;56.66;101673.44;4883028;28;114944;-65
2021/08/17 02:03:57;;;;;;;18.73;7.28;;;;;;;15.50;56.77;101671.53;4884922;28;114675;-65
2021/08/17 02:06:25;;;;;;;21.10;7.53;;;;;;;15.51;56.75;101683.97;4871691;28;123342;-65
2021/08/17 02:08:52;;;;;;;22.50;8.30;;;;;;;15.51;56.83;101681.28;4896283;23;124766;-69
2021/08/17 02:11:19;;;;;;;20.17;7.70;;;;;;;15.51;57.02;101690.16;4868197;28;114242;-69
2021/08/17 02:13:46;;;;;;;24.67;8.90;;;;;;;15.50;56.84;101682.22;4864314;28;113849;-69
2021/08/17 02:16:14;;;;;;;19.02;7.65;;;;;;;15.52;56.92;101685.66;4869042;28;124056;-68
2021/08/17 02:18:41;;;;;;;25.00;8.27;;;;;;;15.52;56.92;101685.66;4867803;28;123763;-68
2021/08/17 02:21:08;;;;;;;22.40;9.02;;;;;;;15.53;57.01;101684.72;4856242;28;113397;-69
2021/08/17 02:23:35;;;;;;;26.50;8.85;;;;;;;15.52;57.07;101681.22;4866039;28;114090;-68
2021/08/17 02:26:02;;;;;;;23.17;8.65;;;;;;;15.53;57.26;101679.41;4870654;28;123950;-69
2021/08/17 02:28:29;;;;;;;21.13;8.73;;;;;;;15.55;57.22;101685.50;4872197;28;124182;-69
2021/08/17 02:30:56;;;;;;;23.77;8.65;;;;;;;15.54;57.32;101676.66;4868806;28;114659;-69
2021/08/17 02:33:24;;;;;;;24.58;9.73;;;;;;;15.56;57.32;101681.91;4871068;28;115593;-69
2021/08/17 02:35:51;;;;;;;24.98;9.35;;;;;;;15.57;57.33;101678.28;4872293;28;124153;-69
2021/08/17 02:38:18;;;;;;;25.60;9.70;;;;;;;15.58;57.09;101680.03;4870739;28;124041;-69
2021/08/17 02:40:45;;;;;;;27.38;9.15;;;;;;;15.58;57.37;101674.69;4872034;28;113617;-69
2021/08/17 02:43:12;;;;;;;27.05;9.38;;;;;;;15.60;57.49;101677.28;4872110;28;114068;-69
2021/08/17 02:45:39;;;;;;;27.95;10.07;;;;;;;15.61;57.55;101679.00;4874415;28;123767;-69
2021/08/17 02:48:06;;;;;;;25.17;8.70;;;;;;;15.62;57.48;101676.25;4872503;28;124610;-69
2021/08/17 02:50:33;;;;;;;26.23;10.10;;;;;;;15.62;57.49;101681.59;4874010;28;114036;-70
2021/08/17 02:53:01;;;;;;;25.83;9.77;;;;;;;15.63;57.61;101672.59;4872120;28;113904;-69
2021/08/17 02:55:28;;;;;;;26.02;10.15;;;;;;;15.63;57.61;101672.59;4874151;28;123989;-69
2021/08/17 02:57:57;;;;;;;23.60;9.60;;;;;;;15.64;57.68;101674.34;4868385;28;123845;-67
2021/08/17 03:00:24;;;;;;;29.92;9.52;;;;;;;15.65;57.61;101670.75;4850212;28;114350;-67
2021/08/17 03:02:51;;;;;;;27.90;10.40;;;;;;;15.66;57.45;101672.47;4868314;28;114246;-67
2021/08/17 03:05:19;;;;;;;25.67;10.35;;;;;;;15.67;57.67;101667.97;4874633;28;124158;-68
2021/08/17 03:08:00;;;;;;;26.10;10.10;;;;;;;15.68;57.67;101677.72;4866635;28;123531;-68
2021/08/17 03:10:28;;;;;;;28.30;9.55;;;;;;;15.66;57.55;101672.47;4872321;28;114551;-67
2021/08/17 03:12:56;;;;;;;27.15;10.27;;;;;;;15.65;57.61;101676.09;4868440;28;114693;-68
2021/08/17 03:15:24;;;;;;;28.40;10.18;;;;;;;15.63;57.84;101675.28;4875542;28;124843;-68
2021/08/17 03:17:51;;;;;;;28.30;10.23;;;;;;;15.63;57.86;101667.28;4859097;28;123672;-67
2021/08/17 03:20:19;;;;;;;29.63;11.07;;;;;;;15.65;57.92;101678.75;4853902;28;115853;-67
2021/08/17 03:22:46;;;;;;;29.20;10.85;;;;;;;15.66;58.00;101677.81;4869826;28;114672;-67
2021/08/17 03:25:18;;;;;;;32.28;10.20;;;;;;;15.67;57.87;101679.53;4868242;28;124274;-67
2021/08/17 03:27:45;;;;;;;28.05;10.60;;;;;;;15.67;57.98;101678.66;4869302;28;124438;-68
2021/08/17 03:30:15;;;;;;;28.52;10.82;;;;;;;15.65;58.17;101665.41;4872289;28;114248;-70
2021/08/17 03:32:42;;;;;;;31.67;10.93;;;;;;;15.67;58.16;101674.19;4870521;28;114042;-68
2021/08/17 03:35:11;;;;;;;25.20;10.27;;;;;;;15.67;58.03;101674.19;4871603;28;123894;-67
2021/08/17 03:37:39;;;;;;;31.92;10.77;;;;;;;15.67;58.08;101674.19;4873674;28;123917;-67
2021/08/17 03:40:09;;;;;;;32.72;10.73;;;;;;;15.67;58.23;101663.53;4873006;28;115995;-68
2021/08/17 03:42:38;;;;;;;32.10;11.02;;;;;;;15.68;58.23;101672.38;4873892;28;113994;-68
2021/08/17 03:45:07;;;;;;;32.03;11.18;;;;;;;15.67;58.16;101668.88;4853798;28;123401;-68
2021/08/17 03:47:34;;;;;;;31.20;10.80;;;;;;;15.67;58.23;101658.19;4874735;28;123843;-67
2021/08/17 03:50:03;;;;;;;34.75;10.93;;;;;;;15.69;58.37;101666.97;4872501;28;114982;-69
2021/08/17 03:52:30;;;;;;;32.28;11.93;;;;;;;15.69;58.57;101666.97;4872996;28;113731;-69
2021/08/17 03:54:57;;;;;;;31.08;11.25;;;;;;;15.71;58.49;101658.88;4867655;28;124704;-70
2021/08/17 03:57:24;;;;;;;33.78;11.88;;;;;;;15.73;58.63;101663.22;4873600;28;124910;-68
2021/08/17 03:59:51;;;;;;;33.60;11.75;;;;;;;15.74;58.61;101654.25;4871047;28;114197;-67
2021/08/17 04:02:19;;;;;;;30.77;11.55;;;;;;;15.76;58.65;101662.19;4870573;28;113929;-68
2021/08/17 04:04:46;;;;;;;31.88;12.38;;;;;;;15.76;58.59;101663.06;4855090;28;124603;-68
2021/08/17 04:07:13;;;;;;;34.47;12.15;;;;;;;15.79;58.85;101664.69;4875397;28;124335;-69
2021/08/17 04:09:40;;;;;;;36.20;12.73;;;;;;;15.81;58.80;101667.28;4872433;28;115718;-67
2021/08/17 04:12:07;;;;;;;33.35;12.35;;;;;;;15.83;58.96;101668.06;4867744;28;114810;-67
2021/08/17 04:14:34;;;;;;;35.20;12.32;;;;;;;15.85;59.05;101671.50;4863278;28;123890;-67
2021/08/17 04:17:02;;;;;;;36.35;12.30;;;;;;;15.88;58.99;101676.66;4869102;28;123923;-67
2021/08/17 04:19:29;;;;;;;31.00;11.80;;;;;;;15.90;59.17;101680.16;4865029;28;115243;-68
2021/08/17 04:21:56;;;;;;;34.95;13.13;;;;;;;15.93;59.11;101677.28;4871672;28;114072;-67
2021/08/17 04:24:24;;;;;;;37.85;13.55;;;;;;;15.95;59.21;101678.06;4867699;28;124808;-67
2021/08/17 04:26:51;;;;;;;41.30;13.40;;;;;;;15.97;59.15;101676.19;4871698;28;123975;-68
2021/08/17 04:29:18;;;;;;;36.35;12.68;;;;;;;15.99;59.29;101668.94;4870295;28;114125;-68
2021/08/17 04:31:45;;;;;;;34.70;13.57;;;;;;;16.01;59.35;101672.41;4867761;28;114161;-68
2021/08/17 04:34:12;;;;;;;33.83;12.50;;;;;;;16.05;59.50;101668.63;4868820;28;124510;-68
2021/08/17 04:36:39;;;;;;;34.25;13.57;;;;;;;16.08;59.55;101676.44;4854645;28;124721;-68
2021/08/17 04:39:06;;;;;;;39.75;13.18;;;;;;;16.11;59.50;101668.28;4869176;28;113716;-70
2021/08/17 04:41:33;;;;;;;36.05;13.27;;;;;;;16.14;59.59;101668.13;4870657;28;113888;-69
2021/08/17 04:44:00;;;;;;;38.83;13.30;;;;;;;16.18;59.45;101678.63;4869003;28;123353;-68
2021/08/17 04:46:28;;;;;;;35.75;13.18;;;;;;;16.20;59.56;101676.72;4874473;28;123780;-68
2021/08/17 04:48:55;;;;;;;42.58;14.18;;;;;;;16.25;59.56;101680.00;4875296;28;114230;-68
2021/08/17 04:51:23;;;;;;;36.05;13.50;;;;;;;16.28;59.79;101679.84;4858795;28;113774;-69
2021/08/17 04:53:50;;;;;;;37.85;13.23;;;;;;;16.32;59.85;101681.41;4872818;28;124152;-69
2021/08/17 04:56:17;;;;;;;40.50;14.68;;;;;;;16.35;59.90;101676.75;4874787;28;123923;-69
2021/08/17 04:58:44;;;;;;;38.10;13.88;;;;;;;16.39;59.89;101680.13;4874423;28;115707;-68
2021/08/17 05:01:12;;;;;;;40.75;13.88;;;;;;;16.42;59.95;101687.09;4865650;28;114790;-69
2021/08/17 05:03:39;;;;;;;39.67;13.52;;;;;;;16.44;59.93;101686.03;4871936;28;124276;-69
2021/08/17 05:06:06;;;;;;;35.80;13.75;;;;;;;16.48;59.93;101692.97;4857657;28;123043;-68
2021/08/17 05:08:33;;;;;;;40.92;14.70;;;;;;;16.52;59.96;101705.22;4872631;28;114011;-68
2021/08/17 05:11:01;;;;;;;36.05;13.52;;;;;;;16.54;59.85;101697.97;4866580;28;114074;-68
2021/08/17 05:13:28;;;;;;;35.83;13.05;;;;;;;16.60;60.11;101695.91;4868976;28;124048;-68
2021/08/17 05:15:55;;;;;;;41.58;14.38;;;;;;;16.62;60.16;101704.69;4858128;28;123362;-69
2021/08/17 05:18:22;;;;;;;36.90;13.52;;;;;;;16.66;60.02;101703.56;4867324;28;114431;-68
2021/08/17 05:20:50;;;;;;;39.75;14.38;;;;;;;16.69;60.01;101711.44;4870004;28;114075;-68
2021/08/17 05:23:17;;;;;;;38.47;14.20;;;;;;;16.73;60.16;101712.97;4866122;28;123941;-69
2021/08/17 05:25:44;;;;;;;37.72;13.93;;;;;;;16.76;60.22;101718.13;4871576;28;123889;-69
2021/08/17 05:28:11;;;;;;;37.25;13.55;;;;;;;16.79;60.24;101717.97;4867170;28;114236;-69
2021/08/17 05:30:38;;;;;;;33.25;13.55;;;;;;;16.83;60.22;101708.00;4867539;28;114043;-69
2021/08/17 05:33:05;;;;;;;37.15;13.43;;;;;;;16.87;60.27;101715.72;4866887;28;123907;-69
2021/08/17 05:35:35;;;;;;;38.05;13.27;;;;;;;16.90;60.03;101726.28;4854466;28;123997;-69
2021/08/17 05:38:03;;;;;;;35.03;13.57;;;;;;;16.93;60.33;101710.06;4872200;28;114608;-68
2021/08/17 05:40:30;;;;;;;43.10;14.10;;;;;;;16.97;60.23;101700.03;4855825;28;113983;-69
2021/08/17 05:42:57;;;;;;;39.13;14.50;;;;;;;17.01;60.22;101706.03;4872112;28;124110;-70
2021/08/17 05:45:25;;;;;;;40.80;14.68;;;;;;;17.05;60.33;101704.94;4870869;28;123905;-69
2021/08/17 05:47:52;;;;;;;40.15;13.15;;;;;;;17.07;60.35;101701.22;4855158;28;114961;-69
2021/08/17 05:50:20;;;;;;;33.97;13.18;;;;;;;17.10;60.33;101701.03;4870629;28;114979;-69
2021/08/17 05:52:47;;;;;;;44.05;13.98;;;;;;;17.15;60.31;101698.06;4871030;28;124868;-70
2021/08/17 05:55:18;;;;;;;38.75;13.82;;;;;;;17.18;60.23;101695.22;4868615;28;123855;-70
2021/08/17 05:57:59;;;;;;;38.05;12.60;;;;;;;17.22;60.34;101694.09;4874532;28;114194;-69
2021/08/17 06:00:27;;;;;;;31.73;12.90;;;;;;;17.29;60.31;101700.81;4868366;28;114628;-70
2021/08/17 06:02:54;;;;;;;34.17;12.63;;;;;;;17.35;60.30;101698.69;4872422;28;124685;-69
2021/08/17 06:05:22;;;;;;;38.42;13.02;;;;;;;17.39;60.35;101701.09;4852310;28;124130;-70
2021/08/17 06:07:50;;;;;;;32.67;12.88;;;;;;;17.44;60.24;101704.38;4869326;28;114982;-69
2021/08/17 06:10:19;;;;;;;37.30;12.60;;;;;;;17.49;60.46;101688.03;4866700;28;114117;-68
2021/08/17 06:12:46;;;;;;;34.88;12.15;;;;;;;17.53;60.06;101692.22;4871571;28;123790;-68
2021/08/17 06:15:15;;;;;;;34.05;12.57;;;;;;;17.55;60.30;101687.63;4855963;28;123124;-69
2021/08/17 06:17:42;;;;;;;32.88;12.43;;;;;;;17.58;60.15;101690.13;4858307;28;114472;-70
2021/08/17 06:20:11;;;;;;;32.95;12.48;;;;;;;17.61;60.17;101684.59;4874922;28;113936;-69
2021/08/17 06:22:38;;;;;;;29.75;11.80;;;;;;;17.65;60.26;101683.47;4875484;28;123770;-69
2021/08/17 06:25:07;;;;;;;32.67;12.02;;;;;;;17.70;60.20;101684.00;4874177;28;124773;-69
2021/08/17 06:27:35;;;;;;;34.38;12.95;;;;;;;17.74;60.16;101678.47;4874959;28;114543;-69
2021/08/17 06:30:05;;;;;;;32.63;11.75;;;;;;;17.77;60.11;101683.66;4873327;28;114421;-69
2021/08/17 06:32:55;;;;;;;29.90;11.63;;;;;;;17.83;60.26;101685.94;4860526;28;124050;-69
2021/08/17 06:35:23;;;;;;;33.60;12.00;;;;;;;17.89;60.20;101688.28;4867077;28;124248;-69
2021/08/17 06:37:51;;;;;;;31.52;11.13;;;;;;;17.95;60.20;101687.91;4874168;28;115251;-69
2021/08/17 06:40:22;;;;;;;28.67;11.13;;;;;;;18.01;60.36;101692.88;4871870;28;115046;-70
2021/08/17 06:42:49;;;;;;;34.38;12.07;;;;;;;18.06;60.24;101680.06;4874314;28;124099;-69
2021/08/17 06:45:16;;;;;;;28.42;10.52;;;;;;;18.12;60.11;101672.56;4875229;28;123657;-69
2021/08/17 06:47:52;;;;;;;28.92;11.13;;;;;;;18.17;60.15;101670.44;4873788;28;114155;-70
2021/08/17 06:50:40;;;;;;;;;;;;;;;18.20;59.70;101667.59;4873894;28;113611;-70
2021/08/17 06:53:07;;;;;;;27.88;9.73;;;;;;;18.28;59.74;101662.59;4871900;28;125101;-70
2021/08/17 06:55:34;;;;;;;26.58;10.38;;;;;;;18.32;59.64;101663.25;4873303;28;124086;-70
2021/08/17 06:58:02;;;;;;;29.58;10.80;;;;;;;18.34;59.78;101672.91;4870822;28;114993;-70
2021/08/17 07:00:29;;;;;;;28.27;11.02;;;;;;;18.37;59.78;101672.72;4857487;28;112878;-70
2021/08/17 07:02:56;;;;;;;28.55;10.88;;;;;;;18.40;59.87;101680.56;4871227;28;123730;-69
2021/08/17 07:05:37;;;;;;;27.63;10.18;;;;;;;18.45;59.88;101683.78;4869854;28;124209;-69
2021/08/17 07:08:05;;;;;;;27.77;11.18;;;;;;;18.48;59.54;101691.66;4855904;28;113633;-69
2021/08/17 07:10:34;;;;;;;27.65;10.43;;;;;;;18.53;59.71;101693.19;4865771;28;114084;-69
2021/08/17 07:13:19;;;;;;;28.83;10.85;;;;;;;18.57;59.76;101689.31;4867343;28;123958;-70
2021/08/17 07:15:47;;;;;;;27.35;10.32;;;;;;;18.61;59.72;101683.69;4871412;28;123905;-69
2021/08/17 07:18:15;;;;;;;29.10;11.82;;;;;;;18.68;59.84;101676.06;4873065;28;114154;-69
2021/08/17 07:20:42;;;;;;;27.65;11.07;;;;;;;18.73;59.88;101663.22;4870798;28;114413;-69
2021/08/17 07:23:09;;;;;;;29.25;11.00;;;;;;;18.76;59.66;101668.38;4869952;28;124672;-69
2021/08/17 07:25:37;;;;;;;25.75;10.20;;;;;;;18.82;59.62;101677.88;4868179;28;123701;-70
2021/08/17 07:28:05;;;;;;;25.90;10.77;;;;;;;18.84;59.80;101679.50;4866520;28;116445;-69
2021/08/17 07:30:32;;;;;;;24.73;9.93;;;;;;;18.88;59.52;101685.53;4872901;28;115080;-69
2021/08/17 07:33:00;;;;;;;26.80;10.35;;;;;;;18.94;59.38;101697.69;4868374;28;124633;-69
2021/08/17 07:35:27;;;;;;;23.80;10.45;;;;;;;18.99;59.51;101706.28;4854506;28;123808;-70
2021/08/17 07:37:55;;;;;;;25.02;10.50;;;;;;;19.03;59.52;101707.81;4866581;28;115410;-70
2021/08/17 07:40:24;;;;;;;24.50;10.50;;;;;;;19.06;59.35;101708.47;4865530;28;113791;-69
2021/08/17 07:42:51;;;;;;;29.17;10.25;;;;;;;19.09;59.38;101702.00;4852604;28;124151;-71
2021/08/17 07:45:20;;;;;;;26.05;9.98;;;;;;;19.12;59.30;101696.44;4858184;28;123339;-71
2021/08/17 07:48:01;;;;;;;25.80;10.07;;;;;;;19.18;59.27;101685.28;4863962;28;114198;-70
2021/08/17 07:50:28;;;;;;;30.13;10.93;;;;;;;19.22;59.30;101691.31;4865029;28;113935;-70
2021/08/17 07:52:55;;;;;;;25.15;10.20;;;;;;;19.28;59.11;101684.66;4864044;28;123469;-70
2021/08/17 07:55:24;;;;;;;24.83;10.27;;;;;;;19.34;59.35;101684.22;4862873;28;124688;-71
2021/08/17 07:57:51;;;;;;;24.05;9.95;;;;;;;19.42;59.04;101685.44;4874112;28;114340;-70
2021/08/17 08:00:18;;;;;;;26.70;10.30;;;;;;;19.50;59.04;101684.91;4868740;28;113919;-72
2021/08/17 08:02:45;;;;;;;29.40;10.40;;;;;;;19.56;59.14;101689.84;4858443;28;124514;-69
2021/08/17 08:05:13;;;;;;;27.83;10.90;;;;;;;19.61;58.98;101687.69;4861289;28;123829;-71
2021/08/17 08:07:40;;;;;;;27.05;10.50;;;;;;;19.68;58.88;101692.63;4862174;28;113439;-69
2021/08/17 08:10:07;;;;;;;23.30;10.10;;;;;;;19.76;58.82;101701.03;4875988;28;114020;-69
2021/08/17 08:12:35;;;;;;;26.73;10.82;;;;;;;19.81;58.67;101689.00;4870084;28;123513;-69
2021/08/17 08:15:05;;;;;;;25.27;11.35;;;;;;;19.85;58.43;101689.66;4879224;23;124214;-65
2021/08/17 08:17:32;;;;;;;24.08;10.32;;;;;;;19.88;58.40;101693.97;4858434;28;114375;-65
2021/08/17 08:20:01;;;;;;;24.73;10.63;;;;;;;19.90;58.46;101692.88;4855215;29;115086;-66
2021/08/17 08:22:28;;;;;;;26.98;10.80;;;;;;;19.95;58.49;101688.03;4854395;29;124140;-64
2021/08/17 08:24:55;;;;;;;23.45;10.05;;;;;;;20.01;58.43;101684.06;4849645;29;124633;-64
2021/08/17 08:27:22;;;;;;;22.38;10.25;;;;;;;20.07;58.22;101688.13;4849067;29;114506;-63
2021/08/17 08:29:49;;;;;;;28.00;10.68;;;;;;;20.15;58.34;101685.75;4852209;29;113331;-63
2021/08/17 08:32:17;;;;;;;25.20;10.02;;;;;;;20.23;58.14;101694.13;4851078;29;124804;-63
2021/08/17 08:34:45;;;;;;;24.52;10.30;;;;;;;20.32;58.09;101697.97;4838279;29;123956;-64
2021/08/17 08:37:12;;;;;;;24.15;10.02;;;;;;;20.39;57.85;101688.47;4844747;29;114275;-63
2021/08/17 08:39:41;;;;;;;23.52;10.13;;;;;;;20.43;57.85;101680.06;4845596;29;113981;-63
2021/08/17 08:42:11;;;;;;;25.88;10.23;;;;;;;20.48;57.58;101682.44;4845215;29;124088;-65
2021/08/17 08:44:39;;;;;;;24.52;10.13;;;;;;;20.51;57.54;101686.72;4836988;28;124637;-66
2021/08/17 08:47:07;;;;;;;22.58;9.27;;;;;;;20.50;57.15;101695.78;4845884;29;114372;-66
2021/08/17 08:49:40;;;;;;;23.88;9.80;;;;;;;20.51;57.11;101692.97;4841778;29;116984;-65
2021/08/17 08:52:08;;;;;;;19.70;9.23;;;;;;;20.52;56.93;101683.06;4849083;29;124426;-66
2021/08/17 08:54:35;;;;;;;19.10;8.52;;;;;;;20.52;56.86;101683.91;4847706;28;123701;-63
2021/08/17 08:57:03;;;;;;;19.60;8.82;;;;;;;20.51;56.81;101675.94;4847986;29;114113;-63
2021/08/17 08:59:30;;;;;;;21.25;9.27;;;;;;;20.53;56.86;101679.38;4851186;29;114129;-63
2021/08/17 09:02:08;;;;;;;17.80;8.98;;;;;;;20.54;56.72;101675.72;4839518;29;123112;-63
2021/08/17 09:04:37;;;;;;;18.15;8.88;;;;;;;20.55;56.69;101672.06;4847062;28;122928;-63
2021/08/17 09:07:05;;;;;;;19.48;9.52;;;;;;;20.60;56.61;101675.31;4846385;29;115149;-63
2021/08/17 09:09:32;;;;;;;18.20;8.55;;;;;;;20.63;56.81;101668.84;4852879;29;115100;-63
2021/08/17 09:12:00;;;;;;;17.60;8.45;;;;;;;20.67;56.48;101684.66;4845578;29;123731;-63
2021/08/17 09:14:34;;;;;;;20.15;9.05;;;;;;;20.69;56.30;101680.00;4849847;29;124583;-63
2021/08/17 09:17:06;;;;;;;19.97;8.97;;;;;;;20.71;56.50;101680.75;4853985;29;114325;-63
2021/08/17 09:19:53;;;;;;;19.08;8.50;;;;;;;20.72;56.11;101695.06;4849069;29;114118;-63
2021/08/17 09:22:24;;;;;;;17.23;7.90;;;;;;;20.70;56.10;101714.03;4846785;29;124851;-65
2021/08/17 09:24:53;;;;;;;15.55;7.80;;;;;;;20.69;55.98;101712.31;4847062;29;124448;-66
2021/08/17 09:27:24;;;;;;;18.30;8.25;;;;;;;20.69;56.11;101712.31;4835418;29;113207;-65
2021/08/17 09:30:12;;;;;;;17.02;7.72;;;;;;;20.71;55.83;101710.34;4836480;29;112947;-65
2021/08/17 09:32:57;;;;;;;18.10;8.35;;;;;;;20.71;55.82;101694.22;4835148;29;122988;-66
2021/08/17 09:35:25;;;;;;;16.48;8.50;;;;;;;20.72;55.63;101695.94;4847787;29;124634;-66
2021/08/17 09:38:15;;;;;;;20.80;8.55;;;;;;;20.71;55.62;101710.34;4841304;29;114236;-64
2021/08/17 09:40:43;;;;;;;17.50;8.30;;;;;;;20.72;55.74;101716.59;4847011;29;114435;-66
2021/08/17 09:43:18;;;;;;;15.40;8.30;;;;;;;20.72;55.56;101711.22;4851936;29;123875;-66
2021/08/17 09:45:46;;;;;;;15.38;8.13;;;;;;;20.72;55.71;101712.09;4854328;29;124921;-66
2021/08/17 09:48:16;;;;;;;17.20;8.27;;;;;;;20.72;55.63;101704.00;4856440;29;114376;-67
2021/08/17 09:50:43;;;;;;;16.42;8.07;;;;;;;20.73;55.48;101681.50;4856884;29;113904;-66
2021/08/17 09:53:18;;;;;;;14.30;7.57;;;;;;;20.74;55.47;101677.84;4853760;29;124142;-64
2021/08/17 09:55:54;;;;;;;15.63;8.35;;;;;;;20.75;55.29;101673.31;4851647;28;124443;-64
2021/08/17 09:58:23;;;;;;;16.02;7.90;;;;;;;20.73;55.08;101659.94;4839961;29;114386;-64
2021/08/17 10:00:54;;;;;;;17.63;8.55;;;;;;;20.72;55.23;101657.38;4856565;29;114587;-66
2021/08/17 10:03:23;;;;;;;14.40;8.30;;;;;;;20.72;55.21;101663.63;4851407;29;124068;-66
2021/08/17 10:05:52;;;;;;;15.52;8.20;;;;;;;20.73;55.31;101662.63;4855612;28;124159;-66
2021/08/17 10:08:23;;;;;;;15.50;8.38;;;;;;;20.74;55.16;101650.91;4858770;29;114160;-66
2021/08/17 10:10:52;;;;;;;13.13;7.45;;;;;;;20.75;55.04;101663.38;4854974;29;114505;-64
2021/08/17 10:13:22;;;;;;;15.43;7.82;;;;;;;20.74;54.77;101672.44;4855647;29;124404;-65
2021/08/17 10:15:51;;;;;;;16.60;8.05;;;;;;;20.73;54.86;101676.09;4854874;28;122818;-64
2021/08/17 10:18:21;;;;;;;13.05;7.38;;;;;;;20.72;54.87;101679.78;4836907;29;114414;-65
2021/08/17 10:20:52;;;;;;;15.98;7.28;;;;;;;20.71;54.63;101683.44;4852609;29;113960;-64
2021/08/17 10:23:22;;;;;;;12.63;7.53;;;;;;;20.68;54.54;101675.59;4841395;29;123398;-65
2021/08/17 10:25:53;;;;;;;14.20;7.47;;;;;;;20.65;54.59;101678.53;4851998;29;124478;-65
2021/08/17 10:28:27;;;;;;;13.68;7.88;;;;;;;20.64;54.59;101670.56;4856290;29;113447;-64
2021/08/17 10:30:55;;;;;;;13.70;7.47;;;;;;;20.64;54.63;101671.41;4853627;29;113789;-64
2021/08/17 10:33:38;;;;;;;13.38;6.68;;;;;;;20.61;54.67;101663.56;4841597;29;123418;-65
2021/08/17 10:36:08;;;;;;;14.75;6.50;;;;;;;20.59;54.40;101662.81;4856245;28;123677;-66
2021/08/17 10:38:38;;;;;;;13.55;6.93;;;;;;;20.53;54.23;101658.72;4858541;29;114297;-66
2021/08/17 10:41:07;;;;;;;10.25;6.47;;;;;;;20.50;54.11;101655.41;4856304;29;113442;-67
2021/08/17 10:43:34;;;;;;;14.93;6.70;;;;;;;20.45;54.29;101665.66;4854775;29;123948;-66
2021/08/17 10:46:05;;;;;;;11.23;6.18;;;;;;;20.40;54.17;101653.41;4852823;28;123980;-66
2021/08/17 10:51:17;;;;;;;10.70;5.93;;;;;;;20.30;54.20;101652.34;4858830;29;115711;-66
2021/08/17 10:53:51;;;;;;;11.07;5.82;;;;;;;20.29;54.22;101656.00;4842617;29;124101;-66
2021/08/17 10:56:38;;;;;;;9.00;5.50;;;;;;;20.24;54.27;101647.41;4857904;29;124276;-66
2021/08/17 10:59:06;;;;;;;12.43;6.70;;;;;;;20.26;54.43;101655.38;4858323;29;114068;-66
2021/08/17 11:01:42;;;;;;;13.80;6.22;;;;;;;20.26;54.50;101650.00;4856220;29;114220;-66
2021/08/17 11:04:13;;;;;;;9.85;6.35;;;;;;;20.26;54.29;101645.47;4852444;29;123447;-66
2021/08/17 11:06:50;;;;;;;10.40;5.72;;;;;;;20.23;54.47;101638.50;4842384;29;124023;-66
2021/08/17 11:09:35;;;;;;;11.50;5.55;;;;;;;20.21;54.48;101643.13;4858418;29;114946;-66
2021/08/17 11:12:08;;;;;;;11.65;6.07;;;;;;;20.18;54.64;101642.50;4853431;29;114337;-66
2021/08/17 11:14:38;;;;;;;12.07;6.25;;;;;;;20.16;54.76;101645.28;4854058;28;124111;-66
2021/08/17 11:17:08;;;;;;;11.18;5.53;;;;;;;20.15;54.62;101642.69;4854247;29;122528;-66